sensor_id;sensor_type;location;lat;lon;timestamp;P1;P2;P0
47709;PMS7003;33473;51.640;5.892;2022-10-31T00:12:42;13.33;15.38;10.47
47709;PMS7003;33473;51.640;5.892;2022-10-31T00:26:01;15.01;16.14;10.91
47709;PMS7003;33473;51.640;5.892;2022-10-31T00:39:23;15.73;16.69;11.56
47709;PMS7003;33473;51.640;5.892;2022-10-31T00:52:44;17.65;17.67;11.67
47709;PMS7003;33473;51.640;5.892;2022-10-31T01:06:05;18.49;17.67;11.35
47709;PMS7003;33473;51.640;5.892;2022-10-31T01:19:27;14.77;14.94;9.71
47709;PMS7003;33473;51.640;5.892;2022-10-31T01:32:46;15.85;16.14;10.58
47709;PMS7003;33473;51.640;5.892;2022-10-31T01:46:08;14.77;13.85;9.38
47709;PMS7003;33473;51.640;5.892;2022-10-31T01:59:29;13.33;14.83;10.15
47709;PMS7003;33473;51.640;5.892;2022-10-31T02:12:51;11.65;13.63;9.38
47709;PMS7003;33473;51.640;5.892;2022-10-31T02:26:12;12.37;14.51;10.36
47709;PMS7003;33473;51.640;5.892;2022-10-31T02:39:33;11.41;13.42;9.82
47709;PMS7003;33473;51.640;5.892;2022-10-31T02:52:53;13.81;14.72;10.58
47709;PMS7003;33473;51.640;5.892;2022-10-31T03:06:14;13.09;14.83;9.93
47709;PMS7003;33473;51.640;5.892;2022-10-31T03:19:36;11.65;13.74;9.49
47709;PMS7003;33473;51.640;5.892;2022-10-31T03:32:57;13.45;15.27;10.26
47709;PMS7003;33473;51.640;5.892;2022-10-31T03:46:17;14.17;15.05;10.04
47709;PMS7003;33473;51.640;5.892;2022-10-31T03:59:38;10.81;12.33;8.51
47709;PMS7003;33473;51.640;5.892;2022-10-31T04:12:58;8.77;10.91;7.97
47709;PMS7003;33473;51.640;5.892;2022-10-31T04:26:17;12.97;14.07;10.36
47709;PMS7003;33473;51.640;5.892;2022-10-31T04:39:39;10.45;12.76;8.73
47709;PMS7003;33473;51.640;5.892;2022-10-31T04:52:58;11.05;12.22;9.06
47709;PMS7003;33473;51.640;5.892;2022-10-31T05:06:20;9.13;11.45;8.62
47709;PMS7003;33473;51.640;5.892;2022-10-31T05:19:41;13.69;15.49;11.02
47709;PMS7003;33473;51.640;5.892;2022-10-31T05:33:01;11.65;13.74;9.49
47709;PMS7003;33473;51.640;5.892;2022-10-31T05:46:20;10.69;12.76;8.95
47709;PMS7003;33473;51.640;5.892;2022-10-31T05:59:40;13.09;14.18;9.27
47709;PMS7003;33473;51.640;5.892;2022-10-31T06:13:00;14.41;13.85;9.49
47709;PMS7003;33473;51.640;5.892;2022-10-31T06:26:21;12.73;14.18;9.82
47709;PMS7003;33473;51.640;5.892;2022-10-31T06:39:43;7.45;9.93;7.86
47709;PMS7003;33473;51.640;5.892;2022-10-31T06:53:04;6.37;9.06;7.2
47709;PMS7003;33473;51.640;5.892;2022-10-31T07:06:26;7.33;9.93;7.42
47709;PMS7003;33473;51.640;5.892;2022-10-31T07:19:47;13.45;15.05;10.8
47709;PMS7003;33473;51.640;5.892;2022-10-31T07:33:07;11.41;13.53;9.6
47709;PMS7003;33473;51.640;5.892;2022-10-31T07:46:28;12.37;13.53;9.49
47709;PMS7003;33473;51.640;5.892;2022-10-31T07:59:49;12.37;13.85;10.26
47709;PMS7003;33473;51.640;5.892;2022-10-31T08:13:11;22.81;20.28;13.42
47709;PMS7003;33473;51.640;5.892;2022-10-31T08:26:32;27.25;23.66;15.6
47709;PMS7003;33473;51.640;5.892;2022-10-31T08:39:54;31.81;26.71;17.78
47709;PMS7003;33473;51.640;5.892;2022-10-31T08:53:15;34.58;28.57;18.87
47709;PMS7003;33473;51.640;5.892;2022-10-31T09:06:37;31.69;26.28;17.23
47709;PMS7003;33473;51.640;5.892;2022-10-31T09:19:57;30.85;25.84;16.8
47709;PMS7003;33473;51.640;5.892;2022-10-31T09:33:16;26.89;23.66;15.6
47709;PMS7003;33473;51.640;5.892;2022-10-31T09:46:38;26.65;23.23;15.49
47709;PMS7003;33473;51.640;5.892;2022-10-31T09:59:58;27.13;23.01;14.72
47709;PMS7003;33473;51.640;5.892;2022-10-31T10:13:19;25.21;21.92;14.83
47709;PMS7003;33473;51.640;5.892;2022-10-31T10:26:40;25.93;22.57;14.94
47709;PMS7003;33473;51.640;5.892;2022-10-31T10:40:02;26.05;23.12;15.27
47709;PMS7003;33473;51.640;5.892;2022-10-31T10:53:23;27.37;22.9;14.51
47709;PMS7003;33473;51.640;5.892;2022-10-31T11:06:45;27.01;22.57;15.05
47709;PMS7003;33473;51.640;5.892;2022-10-31T11:20:06;27.37;22.57;14.83
47709;PMS7003;33473;51.640;5.892;2022-10-31T11:33:27;26.05;22.79;14.72
47709;PMS7003;33473;51.640;5.892;2022-10-31T11:46:49;25.21;21.59;13.96
47709;PMS7003;33473;51.640;5.892;2022-10-31T12:00:10;20.89;19.52;12.76
47709;PMS7003;33473;51.640;5.892;2022-10-31T12:13:31;24.01;19.74;12.65
47709;PMS7003;33473;51.640;5.892;2022-10-31T12:26:53;19.81;19.08;12.76
47709;PMS7003;33473;51.640;5.892;2022-10-31T12:40:14;24.01;19.85;12.87
47709;PMS7003;33473;51.640;5.892;2022-10-31T12:53:34;21.25;19.52;12.76
47709;PMS7003;33473;51.640;5.892;2022-10-31T13:06:55;21.37;19.3;12.65
47709;PMS7003;33473;51.640;5.892;2022-10-31T13:20:15;20.29;18.76;12.22
47709;PMS7003;33473;51.640;5.892;2022-10-31T13:33:34;18.49;18.32;12.0
47709;PMS7003;33473;51.640;5.892;2022-10-31T13:46:56;20.17;18.32;11.89
47709;PMS7003;33473;51.640;5.892;2022-10-31T14:00:17;20.65;19.08;12.44
47709;PMS7003;33473;51.640;5.892;2022-10-31T14:13:38;25.33;20.72;13.2
47709;PMS7003;33473;51.640;5.892;2022-10-31T14:26:58;26.53;21.81;13.31
47709;PMS7003;33473;51.640;5.892;2022-10-31T14:40:18;27.13;21.81;13.63
47709;PMS7003;33473;51.640;5.892;2022-10-31T14:53:39;25.09;22.14;13.63
47709;PMS7003;33473;51.640;5.892;2022-10-31T15:06:59;25.09;21.81;13.53
47709;PMS7003;33473;51.640;5.892;2022-10-31T15:20:20;26.29;22.46;13.53
47709;PMS7003;33473;51.640;5.892;2022-10-31T15:33:41;24.61;21.59;13.31
47709;PMS7003;33473;51.640;5.892;2022-10-31T15:47:03;22.69;20.72;12.98
47709;PMS7003;33473;51.640;5.892;2022-10-31T16:00:24;23.17;20.28;12.76
47709;PMS7003;33473;51.640;5.892;2022-10-31T16:13:44;22.33;19.3;12.11
47709;PMS7003;33473;51.640;5.892;2022-10-31T16:27:05;18.13;17.34;11.13
47709;PMS7003;33473;51.640;5.892;2022-10-31T16:40:25;15.13;15.27;9.71
47709;PMS7003;33473;51.640;5.892;2022-10-31T16:53:46;10.81;11.45;7.31
47709;PMS7003;33473;51.640;5.892;2022-10-31T17:07:07;10.33;10.8;6.88
47709;PMS7003;33473;51.640;5.892;2022-10-31T17:20:27;10.81;9.71;6.55
47709;PMS7003;33473;51.640;5.892;2022-10-31T17:33:47;7.57;9.6;6.55
47709;PMS7003;33473;51.640;5.892;2022-10-31T17:47:08;8.53;9.27;6.22
47709;PMS7003;33473;51.640;5.892;2022-10-31T18:00:28;13.09;8.29;5.79
47709;PMS7003;33473;51.640;5.892;2022-10-31T18:13:49;6.25;8.62;5.68
47709;PMS7003;33473;51.640;5.892;2022-10-31T18:27:10;7.69;8.51;5.79
47709;PMS7003;33473;51.640;5.892;2022-10-31T18:40:32;9.49;9.06;6.11
47709;PMS7003;33473;51.640;5.892;2022-10-31T18:53:53;7.69;9.27;6.11
47709;PMS7003;33473;51.640;5.892;2022-10-31T19:07:13;6.97;9.06;6.22
47709;PMS7003;33473;51.640;5.892;2022-10-31T19:20:34;7.57;9.06;6.33
47709;PMS7003;33473;51.640;5.892;2022-10-31T19:33:56;7.69;9.27;6.11
47709;PMS7003;33473;51.640;5.892;2022-10-31T19:47:15;12.25;9.71;6.55
47709;PMS7003;33473;51.640;5.892;2022-10-31T20:00:37;8.05;10.04;6.88
47709;PMS7003;33473;51.640;5.892;2022-10-31T20:13:58;8.41;9.82;6.66
47709;PMS7003;33473;51.640;5.892;2022-10-31T20:27:19;9.85;10.36;7.31
47709;PMS7003;33473;51.640;5.892;2022-10-31T20:40:41;8.77;11.02;6.99
47709;PMS7003;33473;51.640;5.892;2022-10-31T20:54:00;9.97;10.47;6.77
47709;PMS7003;33473;51.640;5.892;2022-10-31T21:07:22;9.01;10.36;6.88
47709;PMS7003;33473;51.640;5.892;2022-10-31T21:20:43;8.05;10.26;6.88
47709;PMS7003;33473;51.640;5.892;2022-10-31T21:34:04;8.17;9.6;6.66
47709;PMS7003;33473;51.640;5.892;2022-10-31T21:47:26;7.69;9.93;6.77
47709;PMS7003;33473;51.640;5.892;2022-10-31T22:00:45;8.41;10.15;6.88
47709;PMS7003;33473;51.640;5.892;2022-10-31T22:14:07;11.05;10.36;7.31
47709;PMS7003;33473;51.640;5.892;2022-10-31T22:27:28;10.69;10.69;7.09
47709;PMS7003;33473;51.640;5.892;2022-10-31T22:40:50;10.45;10.8;7.2
47709;PMS7003;33473;51.640;5.892;2022-10-31T22:54:11;8.77;10.8;6.99
47709;PMS7003;33473;51.640;5.892;2022-10-31T23:07:33;10.45;10.04;7.09
47709;PMS7003;33473;51.640;5.892;2022-10-31T23:20:54;7.45;9.93;6.66
47709;PMS7003;33473;51.640;5.892;2022-10-31T23:34:14;6.61;8.84;6.33
47709;PMS7003;33473;51.640;5.892;2022-10-31T23:47:33;8.05;9.38;6.55
